sensor_id;sensor_type;location;lat;lon;timestamp;temperature;humidity
47961;DHT22;33721;48.852;9.936;2023-03-23T00:02:00;10.10;99.90
47961;DHT22;33721;48.852;9.936;2023-03-23T00:04:26;10.00;99.90
47961;DHT22;33721;48.852;9.936;2023-03-23T00:06:54;9.90;99.90
47961;DHT22;33721;48.852;9.936;2023-03-23T00:09:20;10.00;99.90
47961;DHT22;33721;48.852;9.936;2023-03-23T00:11:50;10.10;99.90
47961;DHT22;33721;48.852;9.936;2023-03-23T00:14:16;10.30;99.90
47961;DHT22;33721;48.852;9.936;2023-03-23T00:16:47;10.60;99.90
47961;DHT22;33721;48.852;9.936;2023-03-23T00:19:14;10.80;99.90
47961;DHT22;33721;48.852;9.936;2023-03-23T00:21:41;11.00;99.90
47961;DHT22;33721;48.852;9.936;2023-03-23T00:24:14;11.20;99.90
47961;DHT22;33721;48.852;9.936;2023-03-23T00:26:43;11.30;99.90
47961;DHT22;33721;48.852;9.936;2023-03-23T00:31:39;11.40;99.90
47961;DHT22;33721;48.852;9.936;2023-03-23T00:34:05;11.40;99.90
47961;DHT22;33721;48.852;9.936;2023-03-23T00:36:32;11.30;99.90
47961;DHT22;33721;48.852;9.936;2023-03-23T00:39:03;11.30;99.90
47961;DHT22;33721;48.852;9.936;2023-03-23T00:41:29;11.30;99.90
47961;DHT22;33721;48.852;9.936;2023-03-23T00:43:57;11.40;99.90
47961;DHT22;33721;48.852;9.936;2023-03-23T00:46:24;11.50;99.90
47961;DHT22;33721;48.852;9.936;2023-03-23T00:48:50;11.50;99.90
47961;DHT22;33721;48.852;9.936;2023-03-23T00:51:18;11.50;99.90
47961;DHT22;33721;48.852;9.936;2023-03-23T00:53:44;11.50;99.90
47961;DHT22;33721;48.852;9.936;2023-03-23T00:56:10;11.60;99.90
47961;DHT22;33721;48.852;9.936;2023-03-23T00:58:36;11.60;99.90
47961;DHT22;33721;48.852;9.936;2023-03-23T01:01:03;11.30;99.90
47961;DHT22;33721;48.852;9.936;2023-03-23T01:03:29;10.90;99.90
47961;DHT22;33721;48.852;9.936;2023-03-23T01:05:55;10.90;99.90
47961;DHT22;33721;48.852;9.936;2023-03-23T01:08:22;11.00;99.90
47961;DHT22;33721;48.852;9.936;2023-03-23T01:10:48;11.10;99.90
47961;DHT22;33721;48.852;9.936;2023-03-23T01:13:15;11.20;99.90
47961;DHT22;33721;48.852;9.936;2023-03-23T01:15:41;11.20;99.90
47961;DHT22;33721;48.852;9.936;2023-03-23T01:18:07;11.20;99.90
47961;DHT22;33721;48.852;9.936;2023-03-23T01:20:35;11.30;99.90
47961;DHT22;33721;48.852;9.936;2023-03-23T01:23:01;11.30;99.90
47961;DHT22;33721;48.852;9.936;2023-03-23T01:25:28;11.30;99.90
47961;DHT22;33721;48.852;9.936;2023-03-23T01:27:54;11.30;99.90
47961;DHT22;33721;48.852;9.936;2023-03-23T01:30:20;11.40;99.90
47961;DHT22;33721;48.852;9.936;2023-03-23T01:32:46;11.30;99.90
47961;DHT22;33721;48.852;9.936;2023-03-23T01:35:13;11.30;99.90
47961;DHT22;33721;48.852;9.936;2023-03-23T01:37:39;11.40;99.90
47961;DHT22;33721;48.852;9.936;2023-03-23T01:40:05;11.40;99.90
47961;DHT22;33721;48.852;9.936;2023-03-23T01:42:35;11.40;99.90
47961;DHT22;33721;48.852;9.936;2023-03-23T01:47:47;11.40;99.90
47961;DHT22;33721;48.852;9.936;2023-03-23T01:50:15;11.40;99.90
47961;DHT22;33721;48.852;9.936;2023-03-23T01:52:41;11.40;99.90
47961;DHT22;33721;48.852;9.936;2023-03-23T01:55:07;11.40;99.90
47961;DHT22;33721;48.852;9.936;2023-03-23T01:57:33;11.30;99.90
47961;DHT22;33721;48.852;9.936;2023-03-23T02:00:03;11.30;99.90
47961;DHT22;33721;48.852;9.936;2023-03-23T02:02:46;11.30;99.90
47961;DHT22;33721;48.852;9.936;2023-03-23T02:05:23;11.30;99.90
47961;DHT22;33721;48.852;9.936;2023-03-23T02:07:50;11.20;99.90
47961;DHT22;33721;48.852;9.936;2023-03-23T02:10:17;11.10;99.90
47961;DHT22;33721;48.852;9.936;2023-03-23T02:12:42;11.10;99.90
47961;DHT22;33721;48.852;9.936;2023-03-23T02:15:08;11.00;99.90
47961;DHT22;33721;48.852;9.936;2023-03-23T02:17:56;10.80;99.90
47961;DHT22;33721;48.852;9.936;2023-03-23T02:23:00;10.70;99.90
47961;DHT22;33721;48.852;9.936;2023-03-23T02:28:16;10.80;99.90
47961;DHT22;33721;48.852;9.936;2023-03-23T02:30:58;10.80;99.90
47961;DHT22;33721;48.852;9.936;2023-03-23T02:33:35;10.80;99.90
47961;DHT22;33721;48.852;9.936;2023-03-23T02:36:03;10.90;99.90
47961;DHT22;33721;48.852;9.936;2023-03-23T02:39:05;10.90;99.90
47961;DHT22;33721;48.852;9.936;2023-03-23T02:41:27;10.90;99.90
47961;DHT22;33721;48.852;9.936;2023-03-23T02:43:55;10.90;99.90
47961;DHT22;33721;48.852;9.936;2023-03-23T02:46:22;10.90;99.90
47961;DHT22;33721;48.852;9.936;2023-03-23T02:48:50;10.90;99.90
47961;DHT22;33721;48.852;9.936;2023-03-23T02:51:19;10.80;99.90
47961;DHT22;33721;48.852;9.936;2023-03-23T02:53:46;10.80;99.90
47961;DHT22;33721;48.852;9.936;2023-03-23T02:56:14;10.80;99.90
47961;DHT22;33721;48.852;9.936;2023-03-23T02:58:40;10.80;99.90
47961;DHT22;33721;48.852;9.936;2023-03-23T03:04:10;10.70;99.90
47961;DHT22;33721;48.852;9.936;2023-03-23T03:07:02;10.60;99.90
47961;DHT22;33721;48.852;9.936;2023-03-23T03:09:50;10.50;99.90
47961;DHT22;33721;48.852;9.936;2023-03-23T03:12:35;10.40;99.90
47961;DHT22;33721;48.852;9.936;2023-03-23T03:15:29;10.20;99.90
47961;DHT22;33721;48.852;9.936;2023-03-23T03:21:08;10.10;99.90
47961;DHT22;33721;48.852;9.936;2023-03-23T03:23:36;10.00;99.90
47961;DHT22;33721;48.852;9.936;2023-03-23T03:26:04;10.10;99.90
47961;DHT22;33721;48.852;9.936;2023-03-23T03:28:32;10.10;99.90
47961;DHT22;33721;48.852;9.936;2023-03-23T03:31:01;10.20;99.90
47961;DHT22;33721;48.852;9.936;2023-03-23T03:33:30;10.30;99.90
47961;DHT22;33721;48.852;9.936;2023-03-23T03:35:59;10.30;99.90
47961;DHT22;33721;48.852;9.936;2023-03-23T03:38:26;10.30;99.90
47961;DHT22;33721;48.852;9.936;2023-03-23T03:40:55;10.20;99.90
47961;DHT22;33721;48.852;9.936;2023-03-23T03:43:21;10.20;99.90
47961;DHT22;33721;48.852;9.936;2023-03-23T03:45:47;10.20;99.90
47961;DHT22;33721;48.852;9.936;2023-03-23T03:48:12;10.30;99.90
47961;DHT22;33721;48.852;9.936;2023-03-23T03:50:38;10.40;99.90
47961;DHT22;33721;48.852;9.936;2023-03-23T03:53:05;10.50;99.90
47961;DHT22;33721;48.852;9.936;2023-03-23T03:55:32;10.70;99.90
47961;DHT22;33721;48.852;9.936;2023-03-23T03:58:02;10.80;99.90
47961;DHT22;33721;48.852;9.936;2023-03-23T04:00:28;10.90;99.90
47961;DHT22;33721;48.852;9.936;2023-03-23T04:02:54;11.00;99.90
47961;DHT22;33721;48.852;9.936;2023-03-23T04:05:23;10.90;99.90
47961;DHT22;33721;48.852;9.936;2023-03-23T04:07:49;10.70;99.90
47961;DHT22;33721;48.852;9.936;2023-03-23T04:10:18;10.70;99.90
47961;DHT22;33721;48.852;9.936;2023-03-23T04:12:47;10.80;99.90
47961;DHT22;33721;48.852;9.936;2023-03-23T04:15:13;10.90;99.90
47961;DHT22;33721;48.852;9.936;2023-03-23T04:17:39;11.00;99.90
47961;DHT22;33721;48.852;9.936;2023-03-23T04:20:06;11.10;99.90
47961;DHT22;33721;48.852;9.936;2023-03-23T04:22:34;11.40;99.90
47961;DHT22;33721;48.852;9.936;2023-03-23T04:25:00;11.40;99.90
47961;DHT22;33721;48.852;9.936;2023-03-23T04:27:29;11.40;99.90
47961;DHT22;33721;48.852;9.936;2023-03-23T04:29:56;11.30;99.90
47961;DHT22;33721;48.852;9.936;2023-03-23T04:32:25;11.40;99.90
47961;DHT22;33721;48.852;9.936;2023-03-23T04:34:55;11.50;99.90
47961;DHT22;33721;48.852;9.936;2023-03-23T04:37:23;11.60;99.90
47961;DHT22;33721;48.852;9.936;2023-03-23T04:39:55;11.80;99.90
47961;DHT22;33721;48.852;9.936;2023-03-23T04:42:29;12.00;99.90
47961;DHT22;33721;48.852;9.936;2023-03-23T04:44:56;12.10;99.90
47961;DHT22;33721;48.852;9.936;2023-03-23T04:47:22;12.30;99.90
47961;DHT22;33721;48.852;9.936;2023-03-23T04:49:48;12.50;99.90
47961;DHT22;33721;48.852;9.936;2023-03-23T04:52:14;12.60;99.90
47961;DHT22;33721;48.852;9.936;2023-03-23T04:54:40;12.80;99.90
47961;DHT22;33721;48.852;9.936;2023-03-23T04:57:05;12.80;99.90
47961;DHT22;33721;48.852;9.936;2023-03-23T04:59:33;12.80;99.90
47961;DHT22;33721;48.852;9.936;2023-03-23T05:01:59;12.80;99.90
47961;DHT22;33721;48.852;9.936;2023-03-23T05:04:25;12.70;99.90
47961;DHT22;33721;48.852;9.936;2023-03-23T05:06:53;12.80;99.90
47961;DHT22;33721;48.852;9.936;2023-03-23T05:09:19;12.80;99.90
47961;DHT22;33721;48.852;9.936;2023-03-23T05:11:45;12.70;99.90
47961;DHT22;33721;48.852;9.936;2023-03-23T05:14:11;12.80;99.90
47961;DHT22;33721;48.852;9.936;2023-03-23T05:16:37;12.90;99.90
47961;DHT22;33721;48.852;9.936;2023-03-23T05:19:03;12.90;99.90
47961;DHT22;33721;48.852;9.936;2023-03-23T05:21:30;12.80;99.90
47961;DHT22;33721;48.852;9.936;2023-03-23T05:23:56;12.80;99.90
47961;DHT22;33721;48.852;9.936;2023-03-23T05:26:22;12.70;99.90
47961;DHT22;33721;48.852;9.936;2023-03-23T05:28:54;12.60;99.90
47961;DHT22;33721;48.852;9.936;2023-03-23T05:31:22;12.60;99.90
47961;DHT22;33721;48.852;9.936;2023-03-23T05:33:48;12.70;99.90
47961;DHT22;33721;48.852;9.936;2023-03-23T05:36:14;12.70;99.90
47961;DHT22;33721;48.852;9.936;2023-03-23T05:38:40;12.70;99.90
47961;DHT22;33721;48.852;9.936;2023-03-23T05:41:14;12.80;99.90
47961;DHT22;33721;48.852;9.936;2023-03-23T05:43:40;12.80;99.90
47961;DHT22;33721;48.852;9.936;2023-03-23T05:46:06;12.80;99.90
47961;DHT22;33721;48.852;9.936;2023-03-23T05:48:32;12.80;99.90
47961;DHT22;33721;48.852;9.936;2023-03-23T05:50:58;12.80;99.90
47961;DHT22;33721;48.852;9.936;2023-03-23T05:53:24;12.80;99.90
47961;DHT22;33721;48.852;9.936;2023-03-23T05:55:51;12.70;99.90
47961;DHT22;33721;48.852;9.936;2023-03-23T05:58:16;12.70;99.90
47961;DHT22;33721;48.852;9.936;2023-03-23T06:00:42;12.60;99.90
47961;DHT22;33721;48.852;9.936;2023-03-23T06:03:08;12.50;99.90
47961;DHT22;33721;48.852;9.936;2023-03-23T06:05:34;12.50;99.90
47961;DHT22;33721;48.852;9.936;2023-03-23T06:07:59;12.50;99.90
47961;DHT22;33721;48.852;9.936;2023-03-23T06:10:25;12.50;99.90
47961;DHT22;33721;48.852;9.936;2023-03-23T06:12:52;12.60;99.90
47961;DHT22;33721;48.852;9.936;2023-03-23T06:15:18;12.70;99.90
47961;DHT22;33721;48.852;9.936;2023-03-23T06:17:44;12.70;99.90
47961;DHT22;33721;48.852;9.936;2023-03-23T06:20:10;12.70;99.90
47961;DHT22;33721;48.852;9.936;2023-03-23T06:22:37;12.70;99.90
47961;DHT22;33721;48.852;9.936;2023-03-23T06:25:05;12.60;99.90
47961;DHT22;33721;48.852;9.936;2023-03-23T06:27:31;12.70;99.90
47961;DHT22;33721;48.852;9.936;2023-03-23T06:29:57;12.80;99.90
47961;DHT22;33721;48.852;9.936;2023-03-23T06:32:24;12.80;99.90
47961;DHT22;33721;48.852;9.936;2023-03-23T06:34:50;12.80;99.90
47961;DHT22;33721;48.852;9.936;2023-03-23T06:37:16;12.90;99.90
47961;DHT22;33721;48.852;9.936;2023-03-23T06:39:42;12.90;99.90
47961;DHT22;33721;48.852;9.936;2023-03-23T06:42:11;12.90;99.90
47961;DHT22;33721;48.852;9.936;2023-03-23T06:44:37;13.10;99.90
47961;DHT22;33721;48.852;9.936;2023-03-23T06:47:03;13.20;99.90
47961;DHT22;33721;48.852;9.936;2023-03-23T06:49:29;13.20;99.90
47961;DHT22;33721;48.852;9.936;2023-03-23T06:51:55;13.20;99.90
47961;DHT22;33721;48.852;9.936;2023-03-23T06:54:25;13.20;99.90
47961;DHT22;33721;48.852;9.936;2023-03-23T06:56:51;13.30;99.90
47961;DHT22;33721;48.852;9.936;2023-03-23T06:59:17;13.40;99.90
47961;DHT22;33721;48.852;9.936;2023-03-23T07:01:42;13.40;99.90
47961;DHT22;33721;48.852;9.936;2023-03-23T07:04:08;13.40;99.90
47961;DHT22;33721;48.852;9.936;2023-03-23T07:06:34;13.30;99.90
47961;DHT22;33721;48.852;9.936;2023-03-23T07:09:00;13.40;99.90
47961;DHT22;33721;48.852;9.936;2023-03-23T07:11:26;13.60;99.90
47961;DHT22;33721;48.852;9.936;2023-03-23T07:13:51;13.60;99.90
47961;DHT22;33721;48.852;9.936;2023-03-23T07:16:17;13.60;99.90
47961;DHT22;33721;48.852;9.936;2023-03-23T07:18:44;13.60;99.90
47961;DHT22;33721;48.852;9.936;2023-03-23T07:21:10;13.70;99.90
47961;DHT22;33721;48.852;9.936;2023-03-23T07:23:36;13.70;99.90
47961;DHT22;33721;48.852;9.936;2023-03-23T07:26:02;13.80;99.90
47961;DHT22;33721;48.852;9.936;2023-03-23T07:28:28;13.80;99.90
47961;DHT22;33721;48.852;9.936;2023-03-23T07:30:54;13.90;99.90
47961;DHT22;33721;48.852;9.936;2023-03-23T07:33:20;14.00;99.90
47961;DHT22;33721;48.852;9.936;2023-03-23T07:35:47;14.00;99.90
47961;DHT22;33721;48.852;9.936;2023-03-23T07:38:13;14.00;99.90
47961;DHT22;33721;48.852;9.936;2023-03-23T07:40:40;14.10;99.90
47961;DHT22;33721;48.852;9.936;2023-03-23T07:43:06;14.10;99.90
47961;DHT22;33721;48.852;9.936;2023-03-23T07:45:32;14.10;99.90
47961;DHT22;33721;48.852;9.936;2023-03-23T07:47:59;14.20;99.90
47961;DHT22;33721;48.852;9.936;2023-03-23T07:50:25;14.20;99.90
47961;DHT22;33721;48.852;9.936;2023-03-23T07:52:53;14.20;99.90
47961;DHT22;33721;48.852;9.936;2023-03-23T07:55:19;14.20;99.90
47961;DHT22;33721;48.852;9.936;2023-03-23T07:57:48;14.20;99.90
47961;DHT22;33721;48.852;9.936;2023-03-23T08:00:18;14.20;99.90
47961;DHT22;33721;48.852;9.936;2023-03-23T08:02:51;14.20;99.90
47961;DHT22;33721;48.852;9.936;2023-03-23T08:05:18;14.20;99.90
47961;DHT22;33721;48.852;9.936;2023-03-23T08:07:46;14.20;99.90
47961;DHT22;33721;48.852;9.936;2023-03-23T08:10:13;14.10;99.90
47961;DHT22;33721;48.852;9.936;2023-03-23T08:12:42;14.10;99.90
47961;DHT22;33721;48.852;9.936;2023-03-23T08:15:09;14.20;99.90
47961;DHT22;33721;48.852;9.936;2023-03-23T08:17:39;14.30;99.90
47961;DHT22;33721;48.852;9.936;2023-03-23T08:20:06;14.30;99.90
47961;DHT22;33721;48.852;9.936;2023-03-23T08:22:34;14.30;99.90
47961;DHT22;33721;48.852;9.936;2023-03-23T08:25:02;14.30;99.90
47961;DHT22;33721;48.852;9.936;2023-03-23T08:27:29;14.30;99.90
47961;DHT22;33721;48.852;9.936;2023-03-23T08:29:54;14.30;99.90
47961;DHT22;33721;48.852;9.936;2023-03-23T08:32:20;14.30;99.90
47961;DHT22;33721;48.852;9.936;2023-03-23T08:34:46;14.40;99.90
47961;DHT22;33721;48.852;9.936;2023-03-23T08:37:12;14.30;99.90
47961;DHT22;33721;48.852;9.936;2023-03-23T08:39:38;14.30;99.90
47961;DHT22;33721;48.852;9.936;2023-03-23T08:42:04;14.30;99.90
47961;DHT22;33721;48.852;9.936;2023-03-23T08:44:29;14.30;99.90
47961;DHT22;33721;48.852;9.936;2023-03-23T08:46:55;14.40;99.90
47961;DHT22;33721;48.852;9.936;2023-03-23T08:49:22;14.30;99.90
47961;DHT22;33721;48.852;9.936;2023-03-23T08:51:48;14.40;99.90
47961;DHT22;33721;48.852;9.936;2023-03-23T08:54:14;14.40;99.90
47961;DHT22;33721;48.852;9.936;2023-03-23T08:56:39;14.40;99.90
47961;DHT22;33721;48.852;9.936;2023-03-23T08:59:06;14.50;99.90
47961;DHT22;33721;48.852;9.936;2023-03-23T09:01:32;14.50;99.90
47961;DHT22;33721;48.852;9.936;2023-03-23T09:03:58;14.60;99.90
47961;DHT22;33721;48.852;9.936;2023-03-23T09:06:25;14.70;99.90
47961;DHT22;33721;48.852;9.936;2023-03-23T09:08:51;14.70;99.90
47961;DHT22;33721;48.852;9.936;2023-03-23T09:11:17;14.80;99.90
47961;DHT22;33721;48.852;9.936;2023-03-23T09:13:42;14.90;99.90
47961;DHT22;33721;48.852;9.936;2023-03-23T09:16:09;14.90;99.90
47961;DHT22;33721;48.852;9.936;2023-03-23T09:18:35;14.90;99.90
47961;DHT22;33721;48.852;9.936;2023-03-23T09:21:02;14.90;99.90
47961;DHT22;33721;48.852;9.936;2023-03-23T09:23:29;15.00;99.90
47961;DHT22;33721;48.852;9.936;2023-03-23T09:25:55;15.00;99.90
47961;DHT22;33721;48.852;9.936;2023-03-23T09:28:21;15.10;99.90
47961;DHT22;33721;48.852;9.936;2023-03-23T09:30:47;15.10;99.90
47961;DHT22;33721;48.852;9.936;2023-03-23T09:33:14;15.20;99.90
47961;DHT22;33721;48.852;9.936;2023-03-23T09:35:40;15.20;99.90
47961;DHT22;33721;48.852;9.936;2023-03-23T09:38:09;15.20;99.90
47961;DHT22;33721;48.852;9.936;2023-03-23T09:43:29;15.00;99.90
47961;DHT22;33721;48.852;9.936;2023-03-23T09:49:25;14.80;99.90
47961;DHT22;33721;48.852;9.936;2023-03-23T09:51:56;14.70;99.90
47961;DHT22;33721;48.852;9.936;2023-03-23T09:54:29;14.70;99.90
47961;DHT22;33721;48.852;9.936;2023-03-23T09:56:58;14.70;99.90
47961;DHT22;33721;48.852;9.936;2023-03-23T10:02:18;14.70;99.90
47961;DHT22;33721;48.852;9.936;2023-03-23T10:04:52;14.60;99.90
47961;DHT22;33721;48.852;9.936;2023-03-23T10:07:21;14.70;99.90
47961;DHT22;33721;48.852;9.936;2023-03-23T10:09:52;14.60;99.90
47961;DHT22;33721;48.852;9.936;2023-03-23T10:12:27;14.60;99.90
47961;DHT22;33721;48.852;9.936;2023-03-23T10:15:02;14.60;99.90
47961;DHT22;33721;48.852;9.936;2023-03-23T10:25:36;14.60;99.90
47961;DHT22;33721;48.852;9.936;2023-03-23T10:28:11;14.50;99.90
47961;DHT22;33721;48.852;9.936;2023-03-23T10:30:55;14.50;99.90
47961;DHT22;33721;48.852;9.936;2023-03-23T10:33:26;14.50;99.90
47961;DHT22;33721;48.852;9.936;2023-03-23T10:36:00;14.50;99.90
47961;DHT22;33721;48.852;9.936;2023-03-23T10:38:35;14.50;99.90
47961;DHT22;33721;48.852;9.936;2023-03-23T10:41:06;14.50;99.90
47961;DHT22;33721;48.852;9.936;2023-03-23T10:43:34;14.50;99.90
47961;DHT22;33721;48.852;9.936;2023-03-23T10:46:05;14.50;99.90
47961;DHT22;33721;48.852;9.936;2023-03-23T10:48:37;14.50;99.90
47961;DHT22;33721;48.852;9.936;2023-03-23T10:51:07;14.40;99.90
47961;DHT22;33721;48.852;9.936;2023-03-23T10:53:45;14.50;99.90
47961;DHT22;33721;48.852;9.936;2023-03-23T10:56:35;14.40;99.90
47961;DHT22;33721;48.852;9.936;2023-03-23T10:59:12;14.40;99.90
47961;DHT22;33721;48.852;9.936;2023-03-23T11:01:41;14.40;99.90
47961;DHT22;33721;48.852;9.936;2023-03-23T11:04:15;14.40;99.90
47961;DHT22;33721;48.852;9.936;2023-03-23T11:06:48;14.40;99.90
47961;DHT22;33721;48.852;9.936;2023-03-23T11:09:17;14.50;99.90
47961;DHT22;33721;48.852;9.936;2023-03-23T11:11:49;14.60;99.90
47961;DHT22;33721;48.852;9.936;2023-03-23T11:16:54;14.60;99.90
47961;DHT22;33721;48.852;9.936;2023-03-23T11:19:32;14.70;99.90
47961;DHT22;33721;48.852;9.936;2023-03-23T11:24:34;14.80;99.90
47961;DHT22;33721;48.852;9.936;2023-03-23T11:27:01;14.80;99.90
47961;DHT22;33721;48.852;9.936;2023-03-23T11:29:32;14.90;99.90
47961;DHT22;33721;48.852;9.936;2023-03-23T11:34:33;15.00;99.90
47961;DHT22;33721;48.852;9.936;2023-03-23T11:37:03;15.00;99.90
47961;DHT22;33721;48.852;9.936;2023-03-23T11:39:33;15.00;99.90
47961;DHT22;33721;48.852;9.936;2023-03-23T11:42:01;15.00;99.90
47961;DHT22;33721;48.852;9.936;2023-03-23T11:44:40;15.10;99.90
47961;DHT22;33721;48.852;9.936;2023-03-23T11:47:33;15.40;99.90
47961;DHT22;33721;48.852;9.936;2023-03-23T11:55:49;15.60;99.90
47961;DHT22;33721;48.852;9.936;2023-03-23T11:58:20;15.60;99.90
47961;DHT22;33721;48.852;9.936;2023-03-23T12:00:58;15.70;99.90
47961;DHT22;33721;48.852;9.936;2023-03-23T12:07:14;15.80;99.90
47961;DHT22;33721;48.852;9.936;2023-03-23T12:15:08;15.60;99.90
47961;DHT22;33721;48.852;9.936;2023-03-23T12:17:59;15.60;99.90
47961;DHT22;33721;48.852;9.936;2023-03-23T12:21:01;15.60;99.90
47961;DHT22;33721;48.852;9.936;2023-03-23T12:26:40;15.60;99.90
47961;DHT22;33721;48.852;9.936;2023-03-23T12:29:53;15.60;99.90
47961;DHT22;33721;48.852;9.936;2023-03-23T12:35:10;15.90;99.90
47961;DHT22;33721;48.852;9.936;2023-03-23T12:38:48;15.80;99.90
47961;DHT22;33721;48.852;9.936;2023-03-23T12:41:05;15.90;99.90
47961;DHT22;33721;48.852;9.936;2023-03-23T12:44:02;15.90;99.90
47961;DHT22;33721;48.852;9.936;2023-03-23T12:52:20;16.10;99.90
47961;DHT22;33721;48.852;9.936;2023-03-23T12:54:58;15.90;99.90
47961;DHT22;33721;48.852;9.936;2023-03-23T12:57:37;15.90;99.90
47961;DHT22;33721;48.852;9.936;2023-03-23T13:00:14;15.90;99.90
47961;DHT22;33721;48.852;9.936;2023-03-23T13:03:14;15.90;99.90
47961;DHT22;33721;48.852;9.936;2023-03-23T13:05:53;15.80;99.90
47961;DHT22;33721;48.852;9.936;2023-03-23T13:11:22;15.70;99.90
47961;DHT22;33721;48.852;9.936;2023-03-23T13:13:55;15.60;99.90
47961;DHT22;33721;48.852;9.936;2023-03-23T13:16:46;15.60;99.90
47961;DHT22;33721;48.852;9.936;2023-03-23T13:19:26;15.70;99.90
47961;DHT22;33721;48.852;9.936;2023-03-23T13:22:58;15.60;99.90
47961;DHT22;33721;48.852;9.936;2023-03-23T13:24:59;15.60;99.90
47961;DHT22;33721;48.852;9.936;2023-03-23T13:27:27;15.40;99.90
47961;DHT22;33721;48.852;9.936;2023-03-23T13:29:54;15.40;99.90
47961;DHT22;33721;48.852;9.936;2023-03-23T13:32:23;15.50;99.90
47961;DHT22;33721;48.852;9.936;2023-03-23T13:34:53;15.60;99.90
47961;DHT22;33721;48.852;9.936;2023-03-23T13:37:23;15.60;99.90
47961;DHT22;33721;48.852;9.936;2023-03-23T13:39:58;15.70;99.90
47961;DHT22;33721;48.852;9.936;2023-03-23T13:42:28;15.70;99.90
47961;DHT22;33721;48.852;9.936;2023-03-23T13:45:42;15.70;99.90
47961;DHT22;33721;48.852;9.936;2023-03-23T13:50:50;15.70;99.90
47961;DHT22;33721;48.852;9.936;2023-03-23T13:56:16;15.70;99.90
47961;DHT22;33721;48.852;9.936;2023-03-23T13:58:50;15.80;99.90
47961;DHT22;33721;48.852;9.936;2023-03-23T14:01:37;15.80;99.90
47961;DHT22;33721;48.852;9.936;2023-03-23T14:04:14;15.80;99.90
47961;DHT22;33721;48.852;9.936;2023-03-23T14:06:41;15.70;99.90
47961;DHT22;33721;48.852;9.936;2023-03-23T14:09:39;15.70;99.90
47961;DHT22;33721;48.852;9.936;2023-03-23T14:12:27;15.70;99.90
47961;DHT22;33721;48.852;9.936;2023-03-23T14:14:56;15.70;99.90
47961;DHT22;33721;48.852;9.936;2023-03-23T14:17:29;15.80;99.90
47961;DHT22;33721;48.852;9.936;2023-03-23T14:19:58;15.80;99.90
47961;DHT22;33721;48.852;9.936;2023-03-23T14:22:26;15.80;99.90
47961;DHT22;33721;48.852;9.936;2023-03-23T14:25:08;15.80;99.90
47961;DHT22;33721;48.852;9.936;2023-03-23T14:27:35;15.90;99.90
47961;DHT22;33721;48.852;9.936;2023-03-23T14:30:12;15.80;99.90
47961;DHT22;33721;48.852;9.936;2023-03-23T14:32:40;15.80;99.90
47961;DHT22;33721;48.852;9.936;2023-03-23T14:35:21;15.80;99.90
47961;DHT22;33721;48.852;9.936;2023-03-23T14:37:47;15.80;99.90
47961;DHT22;33721;48.852;9.936;2023-03-23T14:40:16;15.80;99.90
47961;DHT22;33721;48.852;9.936;2023-03-23T14:42:43;15.70;99.90
47961;DHT22;33721;48.852;9.936;2023-03-23T14:45:15;15.70;99.90
47961;DHT22;33721;48.852;9.936;2023-03-23T14:47:59;15.70;99.90
47961;DHT22;33721;48.852;9.936;2023-03-23T14:50:58;15.70;99.90
47961;DHT22;33721;48.852;9.936;2023-03-23T14:56:02;15.60;99.90
47961;DHT22;33721;48.852;9.936;2023-03-23T14:58:29;15.60;99.90
47961;DHT22;33721;48.852;9.936;2023-03-23T15:00:59;15.70;99.90
47961;DHT22;33721;48.852;9.936;2023-03-23T15:03:26;15.70;99.90
47961;DHT22;33721;48.852;9.936;2023-03-23T15:05:58;15.80;99.90
47961;DHT22;33721;48.852;9.936;2023-03-23T15:08:26;15.70;99.90
47961;DHT22;33721;48.852;9.936;2023-03-23T15:11:09;15.80;99.90
47961;DHT22;33721;48.852;9.936;2023-03-23T15:13:37;15.80;99.90
47961;DHT22;33721;48.852;9.936;2023-03-23T15:16:29;15.80;99.90
47961;DHT22;33721;48.852;9.936;2023-03-23T15:19:05;15.70;99.90
47961;DHT22;33721;48.852;9.936;2023-03-23T15:21:46;15.70;99.90
47961;DHT22;33721;48.852;9.936;2023-03-23T15:24:39;15.60;99.90
47961;DHT22;33721;48.852;9.936;2023-03-23T15:27:13;15.70;99.90
47961;DHT22;33721;48.852;9.936;2023-03-23T15:29:57;15.60;99.90
47961;DHT22;33721;48.852;9.936;2023-03-23T15:32:36;15.60;99.90
47961;DHT22;33721;48.852;9.936;2023-03-23T15:35:09;15.70;99.90
47961;DHT22;33721;48.852;9.936;2023-03-23T15:37:43;15.60;99.90
47961;DHT22;33721;48.852;9.936;2023-03-23T15:40:23;15.60;99.90
47961;DHT22;33721;48.852;9.936;2023-03-23T15:42:50;15.60;99.90
47961;DHT22;33721;48.852;9.936;2023-03-23T15:45:24;15.60;99.90
47961;DHT22;33721;48.852;9.936;2023-03-23T15:47:50;15.60;99.90
47961;DHT22;33721;48.852;9.936;2023-03-23T15:52:55;15.50;99.90
47961;DHT22;33721;48.852;9.936;2023-03-23T15:55:24;15.50;99.90
47961;DHT22;33721;48.852;9.936;2023-03-23T15:57:52;15.50;99.90
47961;DHT22;33721;48.852;9.936;2023-03-23T16:00:19;15.50;99.90
47961;DHT22;33721;48.852;9.936;2023-03-23T16:02:46;15.50;99.90
47961;DHT22;33721;48.852;9.936;2023-03-23T16:05:14;15.40;99.90
47961;DHT22;33721;48.852;9.936;2023-03-23T16:07:40;15.40;99.90
47961;DHT22;33721;48.852;9.936;2023-03-23T16:10:07;15.50;99.90
47961;DHT22;33721;48.852;9.936;2023-03-23T16:12:39;15.40;99.90
47961;DHT22;33721;48.852;9.936;2023-03-23T16:15:05;15.40;99.90
47961;DHT22;33721;48.852;9.936;2023-03-23T16:17:30;15.30;99.90
47961;DHT22;33721;48.852;9.936;2023-03-23T16:19:57;15.30;99.90
47961;DHT22;33721;48.852;9.936;2023-03-23T16:22:23;15.40;99.90
47961;DHT22;33721;48.852;9.936;2023-03-23T16:24:48;15.40;99.90
47961;DHT22;33721;48.852;9.936;2023-03-23T16:27:14;15.30;99.90
47961;DHT22;33721;48.852;9.936;2023-03-23T16:29:40;15.30;99.90
47961;DHT22;33721;48.852;9.936;2023-03-23T16:32:06;15.30;99.90
47961;DHT22;33721;48.852;9.936;2023-03-23T16:34:32;15.30;99.90
47961;DHT22;33721;48.852;9.936;2023-03-23T16:37:00;15.30;99.90
47961;DHT22;33721;48.852;9.936;2023-03-23T16:39:26;15.20;99.90
47961;DHT22;33721;48.852;9.936;2023-03-23T16:41:52;15.40;99.90
47961;DHT22;33721;48.852;9.936;2023-03-23T16:44:18;15.30;99.90
47961;DHT22;33721;48.852;9.936;2023-03-23T16:46:43;15.30;99.90
47961;DHT22;33721;48.852;9.936;2023-03-23T16:49:09;15.30;99.90
47961;DHT22;33721;48.852;9.936;2023-03-23T16:51:35;15.30;99.90
47961;DHT22;33721;48.852;9.936;2023-03-23T16:54:00;15.30;99.90
47961;DHT22;33721;48.852;9.936;2023-03-23T16:56:26;15.30;99.90
47961;DHT22;33721;48.852;9.936;2023-03-23T16:58:54;15.30;99.90
47961;DHT22;33721;48.852;9.936;2023-03-23T17:01:20;15.30;99.90
47961;DHT22;33721;48.852;9.936;2023-03-23T17:03:46;15.20;99.90
47961;DHT22;33721;48.852;9.936;2023-03-23T17:06:11;15.20;99.90
47961;DHT22;33721;48.852;9.936;2023-03-23T17:08:37;15.20;99.90
47961;DHT22;33721;48.852;9.936;2023-03-23T17:11:03;15.20;99.90